sensor_id;sensor_type;location;lat;lon;timestamp;P1;durP1;ratioP1;P2;durP2;ratioP2
70303;SDS011;57712;48.752;11.348;2022-09-16T00:00:48;19.58;;;10.27;;
70303;SDS011;57712;48.752;11.348;2022-09-16T00:03:15;19.98;;;10.75;;
70303;SDS011;57712;48.752;11.348;2022-09-16T00:05:43;18.20;;;10.02;;
70303;SDS011;57712;48.752;11.348;2022-09-16T00:08:11;17.23;;;10.10;;
70303;SDS011;57712;48.752;11.348;2022-09-16T00:10:38;17.13;;;10.00;;
70303;SDS011;57712;48.752;11.348;2022-09-16T00:13:05;16.58;;;9.98;;
70303;SDS011;57712;48.752;11.348;2022-09-16T00:15:32;15.43;;;9.45;;
70303;SDS011;57712;48.752;11.348;2022-09-16T00:17:58;16.90;;;10.45;;
70303;SDS011;57712;48.752;11.348;2022-09-16T00:20:25;20.97;;;11.27;;
70303;SDS011;57712;48.752;11.348;2022-09-16T00:22:52;17.77;;;10.60;;
70303;SDS011;57712;48.752;11.348;2022-09-16T00:25:19;19.30;;;11.18;;
70303;SDS011;57712;48.752;11.348;2022-09-16T00:27:46;18.77;;;10.63;;
70303;SDS011;57712;48.752;11.348;2022-09-16T00:30:14;22.70;;;11.23;;
70303;SDS011;57712;48.752;11.348;2022-09-16T00:32:41;19.00;;;11.43;;
70303;SDS011;57712;48.752;11.348;2022-09-16T00:35:07;19.70;;;11.18;;
70303;SDS011;57712;48.752;11.348;2022-09-16T00:37:34;20.98;;;13.07;;
70303;SDS011;57712;48.752;11.348;2022-09-16T00:40:01;20.88;;;11.23;;
70303;SDS011;57712;48.752;11.348;2022-09-16T00:42:28;20.95;;;11.88;;
70303;SDS011;57712;48.752;11.348;2022-09-16T00:47:24;22.40;;;13.23;;
70303;SDS011;57712;48.752;11.348;2022-09-16T00:50:02;22.88;;;13.30;;
70303;SDS011;57712;48.752;11.348;2022-09-16T00:52:33;22.63;;;12.15;;
70303;SDS011;57712;48.752;11.348;2022-09-16T00:55:02;22.23;;;12.25;;
70303;SDS011;57712;48.752;11.348;2022-09-16T00:57:33;20.47;;;11.40;;
70303;SDS011;57712;48.752;11.348;2022-09-16T01:00:00;21.77;;;12.13;;
70303;SDS011;57712;48.752;11.348;2022-09-16T01:02:29;22.20;;;12.15;;
70303;SDS011;57712;48.752;11.348;2022-09-16T01:04:59;24.60;;;12.82;;
70303;SDS011;57712;48.752;11.348;2022-09-16T01:07:41;22.98;;;12.52;;
70303;SDS011;57712;48.752;11.348;2022-09-16T01:10:14;20.77;;;12.07;;
70303;SDS011;57712;48.752;11.348;2022-09-16T01:12:49;24.08;;;13.77;;
70303;SDS011;57712;48.752;11.348;2022-09-16T01:15:20;23.00;;;13.48;;
70303;SDS011;57712;48.752;11.348;2022-09-16T01:18:14;28.30;;;13.88;;
70303;SDS011;57712;48.752;11.348;2022-09-16T01:23:40;24.23;;;13.17;;
70303;SDS011;57712;48.752;11.348;2022-09-16T01:32:08;23.25;;;12.68;;
70303;SDS011;57712;48.752;11.348;2022-09-16T01:34:44;26.83;;;13.77;;
70303;SDS011;57712;48.752;11.348;2022-09-16T01:40:02;26.85;;;14.07;;
70303;SDS011;57712;48.752;11.348;2022-09-16T01:42:38;24.17;;;13.10;;
70303;SDS011;57712;48.752;11.348;2022-09-16T01:48:00;22.20;;;12.73;;
70303;SDS011;57712;48.752;11.348;2022-09-16T01:50:52;22.17;;;13.03;;
70303;SDS011;57712;48.752;11.348;2022-09-16T01:53:38;27.55;;;13.60;;
70303;SDS011;57712;48.752;11.348;2022-09-16T01:56:16;25.98;;;12.80;;
70303;SDS011;57712;48.752;11.348;2022-09-16T01:58:52;22.67;;;13.30;;
70303;SDS011;57712;48.752;11.348;2022-09-16T02:01:32;24.40;;;12.55;;
70303;SDS011;57712;48.752;11.348;2022-09-16T02:04:08;23.57;;;12.90;;
70303;SDS011;57712;48.752;11.348;2022-09-16T02:06:38;23.48;;;12.85;;
70303;SDS011;57712;48.752;11.348;2022-09-16T02:09:11;24.60;;;13.48;;
70303;SDS011;57712;48.752;11.348;2022-09-16T02:11:41;24.73;;;12.73;;
70303;SDS011;57712;48.752;11.348;2022-09-16T02:14:13;26.35;;;13.65;;
70303;SDS011;57712;48.752;11.348;2022-09-16T02:16:55;27.73;;;14.67;;
70303;SDS011;57712;48.752;11.348;2022-09-16T02:19:40;23.17;;;12.80;;
70303;SDS011;57712;48.752;11.348;2022-09-16T02:22:13;29.83;;;13.98;;
70303;SDS011;57712;48.752;11.348;2022-09-16T02:24:43;23.05;;;13.80;;
70303;SDS011;57712;48.752;11.348;2022-09-16T02:27:17;26.30;;;13.68;;
70303;SDS011;57712;48.752;11.348;2022-09-16T02:29:48;24.13;;;13.63;;
70303;SDS011;57712;48.752;11.348;2022-09-16T02:32:18;24.92;;;13.35;;
70303;SDS011;57712;48.752;11.348;2022-09-16T02:34:48;25.30;;;13.95;;
70303;SDS011;57712;48.752;11.348;2022-09-16T02:37:17;30.42;;;14.05;;
70303;SDS011;57712;48.752;11.348;2022-09-16T02:39:47;26.02;;;13.13;;
70303;SDS011;57712;48.752;11.348;2022-09-16T02:42:19;26.73;;;14.17;;
70303;SDS011;57712;48.752;11.348;2022-09-16T02:44:46;28.77;;;14.20;;
70303;SDS011;57712;48.752;11.348;2022-09-16T02:47:16;25.92;;;14.55;;
70303;SDS011;57712;48.752;11.348;2022-09-16T02:50:22;29.10;;;14.18;;
70303;SDS011;57712;48.752;11.348;2022-09-16T02:56:01;27.30;;;14.17;;
70303;SDS011;57712;48.752;11.348;2022-09-16T02:58:32;27.50;;;14.48;;
70303;SDS011;57712;48.752;11.348;2022-09-16T03:00:59;23.85;;;13.45;;
70303;SDS011;57712;48.752;11.348;2022-09-16T03:03:26;23.92;;;14.02;;
70303;SDS011;57712;48.752;11.348;2022-09-16T03:06:26;39.75;;;22.00;;
70303;SDS011;57712;48.752;11.348;2022-09-16T03:08:48;52.57;;;30.87;;
70303;SDS011;57712;48.752;11.348;2022-09-16T03:23:06;65.17;;;39.23;;
70303;SDS011;57712;48.752;11.348;2022-09-16T03:25:57;74.40;;;43.65;;
70303;SDS011;57712;48.752;11.348;2022-09-16T03:28:34;61.47;;;36.50;;
70303;SDS011;57712;48.752;11.348;2022-09-16T03:31:08;62.22;;;37.88;;
70303;SDS011;57712;48.752;11.348;2022-09-16T03:33:38;63.47;;;40.03;;
70303;SDS011;57712;48.752;11.348;2022-09-16T03:36:13;67.13;;;42.50;;
70303;SDS011;57712;48.752;11.348;2022-09-16T03:38:43;86.10;;;57.50;;
70303;SDS011;57712;48.752;11.348;2022-09-16T03:41:10;94.65;;;62.10;;
70303;SDS011;57712;48.752;11.348;2022-09-16T03:43:38;88.20;;;59.67;;
70303;SDS011;57712;48.752;11.348;2022-09-16T03:46:09;79.65;;;51.80;;
70303;SDS011;57712;48.752;11.348;2022-09-16T03:48:36;61.80;;;39.93;;
70303;SDS011;57712;48.752;11.348;2022-09-16T03:51:03;57.60;;;33.72;;
70303;SDS011;57712;48.752;11.348;2022-09-16T03:53:29;46.58;;;27.27;;
70303;SDS011;57712;48.752;11.348;2022-09-16T03:55:56;40.15;;;23.10;;
70303;SDS011;57712;48.752;11.348;2022-09-16T03:58:22;34.90;;;20.63;;
70303;SDS011;57712;48.752;11.348;2022-09-16T04:00:48;31.17;;;18.60;;
70303;SDS011;57712;48.752;11.348;2022-09-16T04:03:16;28.73;;;18.25;;
70303;SDS011;57712;48.752;11.348;2022-09-16T04:05:43;31.05;;;17.65;;
70303;SDS011;57712;48.752;11.348;2022-09-16T04:08:09;27.05;;;15.38;;
70303;SDS011;57712;48.752;11.348;2022-09-16T04:10:35;25.27;;;15.02;;
70303;SDS011;57712;48.752;11.348;2022-09-16T04:13:02;27.53;;;15.37;;
70303;SDS011;57712;48.752;11.348;2022-09-16T04:15:28;27.13;;;15.40;;
70303;SDS011;57712;48.752;11.348;2022-09-16T04:17:55;24.77;;;13.82;;
70303;SDS011;57712;48.752;11.348;2022-09-16T04:20:21;25.98;;;13.93;;
70303;SDS011;57712;48.752;11.348;2022-09-16T04:22:49;26.80;;;14.20;;
70303;SDS011;57712;48.752;11.348;2022-09-16T04:25:15;23.40;;;13.33;;
70303;SDS011;57712;48.752;11.348;2022-09-16T04:27:41;24.75;;;14.55;;
70303;SDS011;57712;48.752;11.348;2022-09-16T04:30:08;26.48;;;14.65;;
70303;SDS011;57712;48.752;11.348;2022-09-16T04:32:35;23.80;;;14.20;;
70303;SDS011;57712;48.752;11.348;2022-09-16T04:35:02;26.27;;;14.20;;
70303;SDS011;57712;48.752;11.348;2022-09-16T04:37:29;25.80;;;15.33;;
70303;SDS011;57712;48.752;11.348;2022-09-16T04:39:56;25.83;;;15.38;;
70303;SDS011;57712;48.752;11.348;2022-09-16T04:42:29;25.02;;;14.98;;
70303;SDS011;57712;48.752;11.348;2022-09-16T04:44:55;25.73;;;14.90;;
70303;SDS011;57712;48.752;11.348;2022-09-16T04:47:22;26.17;;;14.65;;
70303;SDS011;57712;48.752;11.348;2022-09-16T04:49:49;28.70;;;15.23;;
70303;SDS011;57712;48.752;11.348;2022-09-16T04:52:16;25.38;;;15.00;;
70303;SDS011;57712;48.752;11.348;2022-09-16T04:54:42;24.13;;;14.77;;
70303;SDS011;57712;48.752;11.348;2022-09-16T04:57:09;25.25;;;14.70;;
70303;SDS011;57712;48.752;11.348;2022-09-16T04:59:35;25.95;;;15.80;;
70303;SDS011;57712;48.752;11.348;2022-09-16T05:02:02;27.97;;;16.17;;
70303;SDS011;57712;48.752;11.348;2022-09-16T05:04:28;26.23;;;15.48;;
70303;SDS011;57712;48.752;11.348;2022-09-16T05:06:54;25.88;;;14.48;;
70303;SDS011;57712;48.752;11.348;2022-09-16T05:09:21;26.08;;;14.70;;
70303;SDS011;57712;48.752;11.348;2022-09-16T05:11:47;23.30;;;13.70;;
70303;SDS011;57712;48.752;11.348;2022-09-16T05:14:15;26.90;;;13.37;;
70303;SDS011;57712;48.752;11.348;2022-09-16T05:16:43;23.88;;;13.07;;
70303;SDS011;57712;48.752;11.348;2022-09-16T05:19:11;24.85;;;13.18;;
70303;SDS011;57712;48.752;11.348;2022-09-16T05:21:38;24.27;;;13.05;;
70303;SDS011;57712;48.752;11.348;2022-09-16T05:24:06;26.90;;;13.13;;
70303;SDS011;57712;48.752;11.348;2022-09-16T05:26:35;23.30;;;11.93;;
70303;SDS011;57712;48.752;11.348;2022-09-16T05:29:05;24.02;;;13.25;;
70303;SDS011;57712;48.752;11.348;2022-09-16T05:31:34;23.58;;;12.43;;
70303;SDS011;57712;48.752;11.348;2022-09-16T05:36:48;26.42;;;13.32;;
70303;SDS011;57712;48.752;11.348;2022-09-16T05:39:16;24.00;;;12.97;;
70303;SDS011;57712;48.752;11.348;2022-09-16T05:41:52;22.85;;;12.88;;
70303;SDS011;57712;48.752;11.348;2022-09-16T05:44:20;20.58;;;11.27;;
70303;SDS011;57712;48.752;11.348;2022-09-16T05:46:47;21.08;;;11.90;;
70303;SDS011;57712;48.752;11.348;2022-09-16T05:49:14;21.05;;;12.15;;
70303;SDS011;57712;48.752;11.348;2022-09-16T05:51:46;20.37;;;12.70;;
70303;SDS011;57712;48.752;11.348;2022-09-16T05:54:13;22.20;;;12.98;;
70303;SDS011;57712;48.752;11.348;2022-09-16T05:56:40;22.35;;;12.48;;
70303;SDS011;57712;48.752;11.348;2022-09-16T05:59:09;20.95;;;12.75;;
70303;SDS011;57712;48.752;11.348;2022-09-16T06:01:36;22.33;;;13.02;;
70303;SDS011;57712;48.752;11.348;2022-09-16T06:04:05;20.43;;;12.10;;
70303;SDS011;57712;48.752;11.348;2022-09-16T06:06:33;21.08;;;12.50;;
70303;SDS011;57712;48.752;11.348;2022-09-16T06:09:05;22.88;;;13.25;;
70303;SDS011;57712;48.752;11.348;2022-09-16T06:11:38;22.40;;;13.00;;
70303;SDS011;57712;48.752;11.348;2022-09-16T06:14:06;21.30;;;12.63;;
70303;SDS011;57712;48.752;11.348;2022-09-16T06:16:34;22.67;;;13.63;;
70303;SDS011;57712;48.752;11.348;2022-09-16T06:19:02;19.58;;;11.90;;
70303;SDS011;57712;48.752;11.348;2022-09-16T06:21:31;21.33;;;12.07;;
70303;SDS011;57712;48.752;11.348;2022-09-16T06:23:57;22.05;;;12.02;;
70303;SDS011;57712;48.752;11.348;2022-09-16T06:26:25;20.17;;;12.30;;
70303;SDS011;57712;48.752;11.348;2022-09-16T06:28:52;19.73;;;11.97;;
70303;SDS011;57712;48.752;11.348;2022-09-16T06:31:20;19.92;;;11.68;;
70303;SDS011;57712;48.752;11.348;2022-09-16T06:33:51;20.15;;;12.20;;
70303;SDS011;57712;48.752;11.348;2022-09-16T06:36:19;21.23;;;11.93;;
70303;SDS011;57712;48.752;11.348;2022-09-16T06:38:48;22.33;;;11.65;;
70303;SDS011;57712;48.752;11.348;2022-09-16T06:41:15;20.73;;;12.10;;
70303;SDS011;57712;48.752;11.348;2022-09-16T06:43:43;23.40;;;12.10;;
70303;SDS011;57712;48.752;11.348;2022-09-16T06:46:13;22.30;;;12.20;;
70303;SDS011;57712;48.752;11.348;2022-09-16T06:48:43;22.65;;;12.65;;
70303;SDS011;57712;48.752;11.348;2022-09-16T06:51:12;28.67;;;14.82;;
70303;SDS011;57712;48.752;11.348;2022-09-16T06:53:42;32.23;;;18.17;;
70303;SDS011;57712;48.752;11.348;2022-09-16T06:56:11;32.90;;;17.50;;
70303;SDS011;57712;48.752;11.348;2022-09-16T06:58:39;28.63;;;16.55;;
70303;SDS011;57712;48.752;11.348;2022-09-16T07:01:08;31.60;;;15.93;;
70303;SDS011;57712;48.752;11.348;2022-09-16T07:03:37;30.33;;;15.02;;
70303;SDS011;57712;48.752;11.348;2022-09-16T07:06:06;30.10;;;16.37;;
70303;SDS011;57712;48.752;11.348;2022-09-16T07:08:34;30.25;;;16.58;;
70303;SDS011;57712;48.752;11.348;2022-09-16T07:11:02;32.80;;;17.17;;
70303;SDS011;57712;48.752;11.348;2022-09-16T07:13:37;28.13;;;16.33;;
70303;SDS011;57712;48.752;11.348;2022-09-16T07:16:05;27.48;;;16.13;;
70303;SDS011;57712;48.752;11.348;2022-09-16T07:18:38;27.50;;;14.40;;
70303;SDS011;57712;48.752;11.348;2022-09-16T07:23:43;24.40;;;15.27;;
70303;SDS011;57712;48.752;11.348;2022-09-16T07:26:12;28.33;;;16.05;;
70303;SDS011;57712;48.752;11.348;2022-09-16T07:28:40;27.42;;;16.15;;
70303;SDS011;57712;48.752;11.348;2022-09-16T07:31:09;26.93;;;14.90;;
70303;SDS011;57712;48.752;11.348;2022-09-16T07:33:38;25.63;;;14.60;;
70303;SDS011;57712;48.752;11.348;2022-09-16T07:36:07;27.20;;;15.20;;
70303;SDS011;57712;48.752;11.348;2022-09-16T07:38:35;22.00;;;12.82;;
70303;SDS011;57712;48.752;11.348;2022-09-16T07:43:37;23.23;;;14.07;;
70303;SDS011;57712;48.752;11.348;2022-09-16T07:46:05;19.90;;;12.23;;
70303;SDS011;57712;48.752;11.348;2022-09-16T07:48:33;19.90;;;12.27;;
70303;SDS011;57712;48.752;11.348;2022-09-16T07:51:02;20.10;;;11.70;;
70303;SDS011;57712;48.752;11.348;2022-09-16T07:53:30;19.95;;;11.57;;
70303;SDS011;57712;48.752;11.348;2022-09-16T07:56:01;19.17;;;10.70;;
70303;SDS011;57712;48.752;11.348;2022-09-16T07:58:29;19.42;;;10.45;;
70303;SDS011;57712;48.752;11.348;2022-09-16T08:00:56;18.48;;;10.80;;
70303;SDS011;57712;48.752;11.348;2022-09-16T08:03:29;17.13;;;10.60;;
70303;SDS011;57712;48.752;11.348;2022-09-16T08:06:00;16.80;;;10.20;;
70303;SDS011;57712;48.752;11.348;2022-09-16T08:08:29;17.47;;;9.13;;
70303;SDS011;57712;48.752;11.348;2022-09-16T08:10:57;13.98;;;8.75;;
70303;SDS011;57712;48.752;11.348;2022-09-16T08:13:25;14.23;;;8.95;;
70303;SDS011;57712;48.752;11.348;2022-09-16T08:15:54;17.27;;;8.90;;
70303;SDS011;57712;48.752;11.348;2022-09-16T08:18:24;16.15;;;9.00;;
70303;SDS011;57712;48.752;11.348;2022-09-16T08:20:51;13.20;;;9.10;;
70303;SDS011;57712;48.752;11.348;2022-09-16T08:23:17;15.88;;;9.75;;
70303;SDS011;57712;48.752;11.348;2022-09-16T08:25:44;13.80;;;8.68;;
70303;SDS011;57712;48.752;11.348;2022-09-16T08:28:11;18.38;;;10.30;;
70303;SDS011;57712;48.752;11.348;2022-09-16T08:30:39;14.52;;;8.93;;
70303;SDS011;57712;48.752;11.348;2022-09-16T08:33:06;13.90;;;8.73;;
70303;SDS011;57712;48.752;11.348;2022-09-16T08:35:32;14.02;;;8.20;;
70303;SDS011;57712;48.752;11.348;2022-09-16T08:37:59;15.75;;;7.90;;
70303;SDS011;57712;48.752;11.348;2022-09-16T08:40:25;12.70;;;7.55;;
70303;SDS011;57712;48.752;11.348;2022-09-16T08:43:00;11.57;;;7.13;;
70303;SDS011;57712;48.752;11.348;2022-09-16T08:45:41;11.87;;;6.80;;
70303;SDS011;57712;48.752;11.348;2022-09-16T08:50:53;11.63;;;6.75;;
70303;SDS011;57712;48.752;11.348;2022-09-16T08:53:27;10.75;;;6.50;;
70303;SDS011;57712;48.752;11.348;2022-09-16T08:56:19;13.60;;;7.28;;
70303;SDS011;57712;48.752;11.348;2022-09-16T08:58:53;14.17;;;6.90;;
70303;SDS011;57712;48.752;11.348;2022-09-16T09:04:00;11.27;;;7.05;;
70303;SDS011;57712;48.752;11.348;2022-09-16T09:09:37;8.45;;;3.72;;
70303;SDS011;57712;48.752;11.348;2022-09-16T09:12:22;7.67;;;3.50;;
70303;SDS011;57712;48.752;11.348;2022-09-16T09:20:49;7.30;;;3.45;;
70303;SDS011;57712;48.752;11.348;2022-09-16T09:32:19;5.50;;;2.53;;
70303;SDS011;57712;48.752;11.348;2022-09-16T09:48:19;6.65;;;3.50;;
70303;SDS011;57712;48.752;11.348;2022-09-16T09:50:49;6.72;;;3.17;;
70303;SDS011;57712;48.752;11.348;2022-09-16T09:56:18;7.63;;;2.88;;
70303;SDS011;57712;48.752;11.348;2022-09-16T10:01:19;7.60;;;2.50;;
70303;SDS011;57712;48.752;11.348;2022-09-16T10:03:46;5.25;;;2.33;;
70303;SDS011;57712;48.752;11.348;2022-09-16T10:06:14;5.30;;;2.30;;
70303;SDS011;57712;48.752;11.348;2022-09-16T10:08:44;4.43;;;1.65;;
70303;SDS011;57712;48.752;11.348;2022-09-16T10:11:15;6.25;;;2.40;;
70303;SDS011;57712;48.752;11.348;2022-09-16T10:13:50;5.35;;;2.20;;
70303;SDS011;57712;48.752;11.348;2022-09-16T10:16:25;6.47;;;2.63;;
70303;SDS011;57712;48.752;11.348;2022-09-16T10:19:00;7.90;;;3.37;;
70303;SDS011;57712;48.752;11.348;2022-09-16T10:21:39;6.85;;;2.92;;
70303;SDS011;57712;48.752;11.348;2022-09-16T10:27:00;7.00;;;3.08;;
70303;SDS011;57712;48.752;11.348;2022-09-16T10:29:42;6.75;;;2.63;;
70303;SDS011;57712;48.752;11.348;2022-09-16T10:32:08;8.60;;;3.47;;
70303;SDS011;57712;48.752;11.348;2022-09-16T10:34:42;8.98;;;3.88;;
70303;SDS011;57712;48.752;11.348;2022-09-16T10:39:38;7.50;;;3.55;;
70303;SDS011;57712;48.752;11.348;2022-09-16T10:42:21;8.65;;;3.60;;
70303;SDS011;57712;48.752;11.348;2022-09-16T10:44:51;7.87;;;3.47;;
70303;SDS011;57712;48.752;11.348;2022-09-16T10:47:21;7.10;;;3.45;;
70303;SDS011;57712;48.752;11.348;2022-09-16T10:49:52;7.53;;;3.75;;
70303;SDS011;57712;48.752;11.348;2022-09-16T10:52:26;8.43;;;3.75;;
70303;SDS011;57712;48.752;11.348;2022-09-16T10:54:54;10.88;;;3.88;;
70303;SDS011;57712;48.752;11.348;2022-09-16T10:57:29;7.00;;;3.80;;
70303;SDS011;57712;48.752;11.348;2022-09-16T11:00:08;8.50;;;3.67;;
70303;SDS011;57712;48.752;11.348;2022-09-16T11:02:41;6.88;;;2.65;;
70303;SDS011;57712;48.752;11.348;2022-09-16T11:05:30;8.20;;;3.60;;
70303;SDS011;57712;48.752;11.348;2022-09-16T11:08:10;7.00;;;3.20;;
70303;SDS011;57712;48.752;11.348;2022-09-16T11:10:50;6.87;;;3.80;;
70303;SDS011;57712;48.752;11.348;2022-09-16T11:13:26;6.40;;;3.30;;
70303;SDS011;57712;48.752;11.348;2022-09-16T11:24:46;7.53;;;3.13;;
70303;SDS011;57712;48.752;11.348;2022-09-16T11:30:01;7.55;;;3.03;;
70303;SDS011;57712;48.752;11.348;2022-09-16T11:40:57;9.57;;;4.18;;
70303;SDS011;57712;48.752;11.348;2022-09-16T11:46:16;8.95;;;4.43;;
70303;SDS011;57712;48.752;11.348;2022-09-16T11:54:17;6.75;;;3.03;;
70303;SDS011;57712;48.752;11.348;2022-09-16T11:56:46;7.38;;;2.90;;
70303;SDS011;57712;48.752;11.348;2022-09-16T11:59:29;6.10;;;3.20;;
70303;SDS011;57712;48.752;11.348;2022-09-16T12:04:54;8.37;;;3.07;;
70303;SDS011;57712;48.752;11.348;2022-09-16T12:12:38;5.38;;;2.05;;
70303;SDS011;57712;48.752;11.348;2022-09-16T12:15:19;6.50;;;2.60;;
70303;SDS011;57712;48.752;11.348;2022-09-16T12:17:56;7.17;;;2.60;;
70303;SDS011;57712;48.752;11.348;2022-09-16T12:20:30;6.38;;;2.10;;
70303;SDS011;57712;48.752;11.348;2022-09-16T12:23:15;6.07;;;2.30;;
70303;SDS011;57712;48.752;11.348;2022-09-16T12:31:41;8.53;;;2.57;;
70303;SDS011;57712;48.752;11.348;2022-09-16T12:34:17;6.05;;;2.53;;
70303;SDS011;57712;48.752;11.348;2022-09-16T12:36:56;6.88;;;2.90;;
70303;SDS011;57712;48.752;11.348;2022-09-16T12:39:28;4.97;;;1.90;;
70303;SDS011;57712;48.752;11.348;2022-09-16T12:53:06;5.00;;;1.83;;
70303;SDS011;57712;48.752;11.348;2022-09-16T12:56:07;7.88;;;2.67;;
70303;SDS011;57712;48.752;11.348;2022-09-16T13:01:23;6.90;;;2.40;;
70303;SDS011;57712;48.752;11.348;2022-09-16T13:04:25;7.25;;;2.10;;
70303;SDS011;57712;48.752;11.348;2022-09-16T13:06:50;7.22;;;2.35;;
70303;SDS011;57712;48.752;11.348;2022-09-16T13:09:20;6.35;;;2.97;;
70303;SDS011;57712;48.752;11.348;2022-09-16T13:12:24;6.37;;;2.87;;
70303;SDS011;57712;48.752;11.348;2022-09-16T13:15:07;6.45;;;2.95;;
70303;SDS011;57712;48.752;11.348;2022-09-16T13:17:47;9.23;;;3.35;;
70303;SDS011;57712;48.752;11.348;2022-09-16T13:20:22;7.20;;;3.15;;
70303;SDS011;57712;48.752;11.348;2022-09-16T13:28:25;7.82;;;2.88;;
70303;SDS011;57712;48.752;11.348;2022-09-16T13:31:13;7.00;;;2.72;;
70303;SDS011;57712;48.752;11.348;2022-09-16T13:34:01;7.20;;;2.67;;
70303;SDS011;57712;48.752;11.348;2022-09-16T13:36:39;7.82;;;2.70;;
70303;SDS011;57712;48.752;11.348;2022-09-16T13:39:10;5.90;;;2.50;;
70303;SDS011;57712;48.752;11.348;2022-09-16T13:41:45;6.88;;;2.67;;
70303;SDS011;57712;48.752;11.348;2022-09-16T13:44:26;9.40;;;2.92;;
70303;SDS011;57712;48.752;11.348;2022-09-16T13:49:35;6.50;;;2.35;;
70303;SDS011;57712;48.752;11.348;2022-09-16T13:52:10;7.30;;;2.67;;
70303;SDS011;57712;48.752;11.348;2022-09-16T13:54:41;6.72;;;1.92;;
70303;SDS011;57712;48.752;11.348;2022-09-16T14:00:11;6.15;;;2.15;;
70303;SDS011;57712;48.752;11.348;2022-09-16T14:05:53;9.00;;;3.77;;
70303;SDS011;57712;48.752;11.348;2022-09-16T14:11:05;12.70;;;4.90;;
70303;SDS011;57712;48.752;11.348;2022-09-16T14:13:39;6.95;;;2.80;;
70303;SDS011;57712;48.752;11.348;2022-09-16T14:16:19;9.30;;;2.80;;
70303;SDS011;57712;48.752;11.348;2022-09-16T14:18:52;6.43;;;2.80;;
70303;SDS011;57712;48.752;11.348;2022-09-16T14:21:22;8.13;;;3.55;;
70303;SDS011;57712;48.752;11.348;2022-09-16T14:23:49;6.35;;;3.25;;
70303;SDS011;57712;48.752;11.348;2022-09-16T14:26:17;7.72;;;3.78;;
70303;SDS011;57712;48.752;11.348;2022-09-16T14:28:49;6.85;;;3.78;;
70303;SDS011;57712;48.752;11.348;2022-09-16T14:31:19;6.77;;;2.83;;
70303;SDS011;57712;48.752;11.348;2022-09-16T14:33:51;6.70;;;2.97;;
70303;SDS011;57712;48.752;11.348;2022-09-16T14:36:23;9.25;;;3.45;;
70303;SDS011;57712;48.752;11.348;2022-09-16T14:38:59;13.48;;;4.53;;
70303;SDS011;57712;48.752;11.348;2022-09-16T14:41:32;8.00;;;2.72;;
70303;SDS011;57712;48.752;11.348;2022-09-16T14:44:07;8.23;;;2.97;;
70303;SDS011;57712;48.752;11.348;2022-09-16T14:46:42;10.55;;;3.95;;
70303;SDS011;57712;48.752;11.348;2022-09-16T14:49:11;9.68;;;3.97;;
70303;SDS011;57712;48.752;11.348;2022-09-16T14:51:47;9.43;;;3.05;;
70303;SDS011;57712;48.752;11.348;2022-09-16T14:54:17;9.38;;;3.50;;
70303;SDS011;57712;48.752;11.348;2022-09-16T14:57:18;10.33;;;3.70;;
70303;SDS011;57712;48.752;11.348;2022-09-16T14:59:51;9.65;;;3.47;;
70303;SDS011;57712;48.752;11.348;2022-09-16T15:02:24;7.82;;;3.00;;
70303;SDS011;57712;48.752;11.348;2022-09-16T15:07:34;7.43;;;3.20;;
70303;SDS011;57712;48.752;11.348;2022-09-16T15:10:24;10.40;;;3.33;;
70303;SDS011;57712;48.752;11.348;2022-09-16T15:13:15;7.55;;;3.10;;
70303;SDS011;57712;48.752;11.348;2022-09-16T15:15:45;7.50;;;3.08;;
70303;SDS011;57712;48.752;11.348;2022-09-16T15:21:18;6.75;;;3.00;;
70303;SDS011;57712;48.752;11.348;2022-09-16T15:23:51;10.57;;;2.90;;
70303;SDS011;57712;48.752;11.348;2022-09-16T15:26:38;6.22;;;2.85;;
70303;SDS011;57712;48.752;11.348;2022-09-16T15:31:43;6.00;;;2.80;;
70303;SDS011;57712;48.752;11.348;2022-09-16T15:39:23;6.22;;;2.53;;
70303;SDS011;57712;48.752;11.348;2022-09-16T15:42:12;6.40;;;2.35;;
70303;SDS011;57712;48.752;11.348;2022-09-16T15:44:46;8.65;;;2.78;;
70303;SDS011;57712;48.752;11.348;2022-09-16T15:47:27;6.78;;;2.67;;
70303;SDS011;57712;48.752;11.348;2022-09-16T15:50:12;6.30;;;2.70;;
70303;SDS011;57712;48.752;11.348;2022-09-16T15:53:01;7.85;;;2.65;;
70303;SDS011;57712;48.752;11.348;2022-09-16T15:55:54;8.13;;;3.10;;
70303;SDS011;57712;48.752;11.348;2022-09-16T15:58:43;6.80;;;2.70;;
70303;SDS011;57712;48.752;11.348;2022-09-16T16:01:14;7.70;;;3.58;;
70303;SDS011;57712;48.752;11.348;2022-09-16T16:03:52;6.97;;;3.70;;
70303;SDS011;57712;48.752;11.348;2022-09-16T16:11:54;6.20;;;3.30;;
70303;SDS011;57712;48.752;11.348;2022-09-16T16:14:22;7.88;;;3.50;;
70303;SDS011;57712;48.752;11.348;2022-09-16T16:16:49;7.30;;;3.67;;
70303;SDS011;57712;48.752;11.348;2022-09-16T16:19:37;6.90;;;3.55;;
70303;SDS011;57712;48.752;11.348;2022-09-16T16:22:04;6.63;;;3.42;;
70303;SDS011;57712;48.752;11.348;2022-09-16T16:24:32;9.82;;;4.57;;
70303;SDS011;57712;48.752;11.348;2022-09-16T16:26:59;10.75;;;5.03;;
70303;SDS011;57712;48.752;11.348;2022-09-16T16:29:25;8.50;;;4.30;;
70303;SDS011;57712;48.752;11.348;2022-09-16T16:34:30;9.48;;;4.85;;
70303;SDS011;57712;48.752;11.348;2022-09-16T16:36:58;9.05;;;3.63;;
70303;SDS011;57712;48.752;11.348;2022-09-16T16:39:24;6.90;;;3.65;;
70303;SDS011;57712;48.752;11.348;2022-09-16T16:41:51;8.40;;;3.40;;
70303;SDS011;57712;48.752;11.348;2022-09-16T16:44:20;9.80;;;4.28;;
70303;SDS011;57712;48.752;11.348;2022-09-16T16:46:48;9.55;;;3.95;;
70303;SDS011;57712;48.752;11.348;2022-09-16T16:49:16;8.05;;;4.13;;
70303;SDS011;57712;48.752;11.348;2022-09-16T16:51:43;9.23;;;4.28;;
70303;SDS011;57712;48.752;11.348;2022-09-16T16:54:10;8.93;;;4.27;;
70303;SDS011;57712;48.752;11.348;2022-09-16T16:56:38;11.20;;;5.00;;
70303;SDS011;57712;48.752;11.348;2022-09-16T16:59:07;13.32;;;6.35;;
70303;SDS011;57712;48.752;11.348;2022-09-16T17:01:34;14.57;;;7.55;;
70303;SDS011;57712;48.752;11.348;2022-09-16T17:04:02;9.52;;;5.65;;
70303;SDS011;57712;48.752;11.348;2022-09-16T17:06:30;10.17;;;4.30;;
70303;SDS011;57712;48.752;11.348;2022-09-16T17:08:57;9.02;;;4.35;;
70303;SDS011;57712;48.752;11.348;2022-09-16T17:11:24;8.85;;;4.43;;
70303;SDS011;57712;48.752;11.348;2022-09-16T17:13:52;7.38;;;3.95;;
70303;SDS011;57712;48.752;11.348;2022-09-16T17:16:22;10.38;;;4.43;;
70303;SDS011;57712;48.752;11.348;2022-09-16T17:18:50;8.70;;;4.20;;
70303;SDS011;57712;48.752;11.348;2022-09-16T17:21:18;8.27;;;4.40;;
70303;SDS011;57712;48.752;11.348;2022-09-16T17:23:47;9.27;;;4.35;;
70303;SDS011;57712;48.752;11.348;2022-09-16T17:26:13;11.80;;;5.22;;
70303;SDS011;57712;48.752;11.348;2022-09-16T17:28:42;9.82;;;5.32;;
70303;SDS011;57712;48.752;11.348;2022-09-16T17:31:14;8.03;;;4.73;;
70303;SDS011;57712;48.752;11.348;2022-09-16T17:33:56;8.45;;;4.70;;
70303;SDS011;57712;48.752;11.348;2022-09-16T17:36:24;8.07;;;4.70;;
70303;SDS011;57712;48.752;11.348;2022-09-16T17:39:05;9.27;;;4.90;;
70303;SDS011;57712;48.752;11.348;2022-09-16T17:41:43;8.52;;;4.78;;
70303;SDS011;57712;48.752;11.348;2022-09-16T17:44:12;8.40;;;5.13;;
70303;SDS011;57712;48.752;11.348;2022-09-16T17:46:39;8.60;;;4.47;;
70303;SDS011;57712;48.752;11.348;2022-09-16T17:49:08;9.48;;;5.60;;